Řízení letového provozu České republiky
Letiste: LKMT Aktualizace: 23.08.2017 08:05:07  UTC
 METAR LKMT 23.08. 08:00 ...
METAR LKMT 230800Z 22006KT 190V250 9999 FEW017 14/10 Q1020 NOSIG=
 TAF LKMT 23.08. 05:00 ...
TAF LKMT 230500Z 2306/2412 21003KT CAVOK      TEMPO 2308/2315 9999 SCT045      BECMG 2408/2410 23010KT=